Terminal Aerodrome Forecast
Issued by NWS

Home | Current Version | Previous Version | Text Only | Print | Product List | Glossary On
Versions: 1 2 3 4 5 6 7 8 9 10 11 12 13 14 15 16 17 18 19 20 21 22 23 24 25 26 27 28 29 30 31 32 33 34 35 36 37 38 39 40 41 42 43 44
444
FTUS45 KGJT 280537
TAFEGE
TAF
KEGE 280537Z 2806/0106 27008KT 3SM -SN BR BKN021 OVC060
      TEMPO 2806/2810 1SM -SN BR OVC012
     FM281000 24009KT 1 1/2SM -SHSN BR OVC035
     FM281800 25006KT 4SM BR VCSH OVC035
     FM282300 26011KT P6SM VCSH BKN035
     FM010000 26012G20KT P6SM BKN050
      AMD LTD TO CLD VIS AND WIND TIL 281300=

USA.gov is the U.S. government's official web portal to all federal, state and local government web resources and services.